sensor_id;sensor_type;location;lat;lon;timestamp;P1;durP1;ratioP1;P2;durP2;ratioP2
50002;SDS011;35889;51.442;6.408;2022-07-09T00:00:43;0.70;;;0.70;;
50002;SDS011;35889;51.442;6.408;2022-07-09T00:03:08;0.60;;;0.60;;
50002;SDS011;35889;51.442;6.408;2022-07-09T00:05:34;0.60;;;0.60;;
50002;SDS011;35889;51.442;6.408;2022-07-09T00:07:59;0.60;;;0.60;;
50002;SDS011;35889;51.442;6.408;2022-07-09T00:10:24;0.60;;;0.60;;
50002;SDS011;35889;51.442;6.408;2022-07-09T00:12:50;0.60;;;0.60;;
50002;SDS011;35889;51.442;6.408;2022-07-09T00:15:15;0.60;;;0.60;;
50002;SDS011;35889;51.442;6.408;2022-07-09T00:17:41;0.60;;;0.60;;
50002;SDS011;35889;51.442;6.408;2022-07-09T00:20:06;0.70;;;0.70;;
50002;SDS011;35889;51.442;6.408;2022-07-09T00:22:33;0.70;;;0.70;;
50002;SDS011;35889;51.442;6.408;2022-07-09T00:24:58;0.60;;;0.60;;
50002;SDS011;35889;51.442;6.408;2022-07-09T00:27:24;0.70;;;0.70;;
50002;SDS011;35889;51.442;6.408;2022-07-09T00:29:49;0.60;;;0.60;;
50002;SDS011;35889;51.442;6.408;2022-07-09T00:32:15;0.60;;;0.60;;
50002;SDS011;35889;51.442;6.408;2022-07-09T00:34:41;0.52;;;0.52;;
50002;SDS011;35889;51.442;6.408;2022-07-09T00:37:06;0.60;;;0.60;;
50002;SDS011;35889;51.442;6.408;2022-07-09T00:39:32;0.60;;;0.60;;
50002;SDS011;35889;51.442;6.408;2022-07-09T00:42:10;0.70;;;0.70;;
50002;SDS011;35889;51.442;6.408;2022-07-09T00:44:36;0.60;;;0.60;;
50002;SDS011;35889;51.442;6.408;2022-07-09T00:47:02;0.70;;;0.70;;
50002;SDS011;35889;51.442;6.408;2022-07-09T00:49:31;0.60;;;0.60;;
50002;SDS011;35889;51.442;6.408;2022-07-09T00:52:01;0.60;;;0.60;;
50002;SDS011;35889;51.442;6.408;2022-07-09T00:54:26;0.60;;;0.60;;
50002;SDS011;35889;51.442;6.408;2022-07-09T00:56:52;0.60;;;0.60;;
50002;SDS011;35889;51.442;6.408;2022-07-09T00:59:21;0.60;;;0.60;;
50002;SDS011;35889;51.442;6.408;2022-07-09T01:01:46;0.60;;;0.60;;
50002;SDS011;35889;51.442;6.408;2022-07-09T01:04:16;0.70;;;0.70;;
50002;SDS011;35889;51.442;6.408;2022-07-09T01:06:42;0.60;;;0.60;;
50002;SDS011;35889;51.442;6.408;2022-07-09T01:09:08;0.55;;;0.55;;
50002;SDS011;35889;51.442;6.408;2022-07-09T01:11:34;0.60;;;0.60;;
50002;SDS011;35889;51.442;6.408;2022-07-09T01:13:59;0.70;;;0.70;;
50002;SDS011;35889;51.442;6.408;2022-07-09T01:16:31;0.60;;;0.60;;
50002;SDS011;35889;51.442;6.408;2022-07-09T01:18:58;0.60;;;0.60;;
50002;SDS011;35889;51.442;6.408;2022-07-09T01:21:23;0.50;;;0.50;;
50002;SDS011;35889;51.442;6.408;2022-07-09T01:23:49;0.60;;;0.60;;
50002;SDS011;35889;51.442;6.408;2022-07-09T01:26:15;0.60;;;0.60;;
50002;SDS011;35889;51.442;6.408;2022-07-09T01:28:41;0.60;;;0.60;;
50002;SDS011;35889;51.442;6.408;2022-07-09T01:31:07;0.55;;;0.55;;
50002;SDS011;35889;51.442;6.408;2022-07-09T01:33:32;0.60;;;0.60;;
50002;SDS011;35889;51.442;6.408;2022-07-09T01:35:58;0.60;;;0.60;;
50002;SDS011;35889;51.442;6.408;2022-07-09T01:38:24;0.60;;;0.60;;
50002;SDS011;35889;51.442;6.408;2022-07-09T01:40:49;0.65;;;0.65;;
50002;SDS011;35889;51.442;6.408;2022-07-09T01:43:15;0.60;;;0.60;;
50002;SDS011;35889;51.442;6.408;2022-07-09T01:45:40;0.60;;;0.60;;
50002;SDS011;35889;51.442;6.408;2022-07-09T01:48:06;0.60;;;0.60;;
50002;SDS011;35889;51.442;6.408;2022-07-09T01:50:31;0.60;;;0.60;;
50002;SDS011;35889;51.442;6.408;2022-07-09T01:52:57;0.60;;;0.60;;
50002;SDS011;35889;51.442;6.408;2022-07-09T01:55:22;0.60;;;0.60;;
50002;SDS011;35889;51.442;6.408;2022-07-09T01:57:48;0.60;;;0.60;;
50002;SDS011;35889;51.442;6.408;2022-07-09T02:00:13;0.60;;;0.60;;
50002;SDS011;35889;51.442;6.408;2022-07-09T02:02:39;0.60;;;0.60;;
50002;SDS011;35889;51.442;6.408;2022-07-09T02:05:05;0.60;;;0.60;;
50002;SDS011;35889;51.442;6.408;2022-07-09T02:07:31;0.60;;;0.60;;
50002;SDS011;35889;51.442;6.408;2022-07-09T02:09:57;0.60;;;0.60;;
50002;SDS011;35889;51.442;6.408;2022-07-09T02:12:22;0.60;;;0.60;;
50002;SDS011;35889;51.442;6.408;2022-07-09T02:14:48;0.60;;;0.60;;
50002;SDS011;35889;51.442;6.408;2022-07-09T02:17:14;0.60;;;0.60;;
50002;SDS011;35889;51.442;6.408;2022-07-09T02:19:40;0.60;;;0.60;;
50002;SDS011;35889;51.442;6.408;2022-07-09T02:22:05;0.50;;;0.50;;
50002;SDS011;35889;51.442;6.408;2022-07-09T02:24:31;0.60;;;0.60;;
50002;SDS011;35889;51.442;6.408;2022-07-09T02:26:56;0.70;;;0.70;;
50002;SDS011;35889;51.442;6.408;2022-07-09T02:29:21;0.55;;;0.55;;
50002;SDS011;35889;51.442;6.408;2022-07-09T02:31:47;0.60;;;0.60;;
50002;SDS011;35889;51.442;6.408;2022-07-09T02:34:13;0.70;;;0.70;;
50002;SDS011;35889;51.442;6.408;2022-07-09T02:36:38;0.60;;;0.60;;
50002;SDS011;35889;51.442;6.408;2022-07-09T02:39:03;0.60;;;0.60;;
50002;SDS011;35889;51.442;6.408;2022-07-09T02:41:29;0.60;;;0.60;;
50002;SDS011;35889;51.442;6.408;2022-07-09T02:43:54;0.60;;;0.60;;
50002;SDS011;35889;51.442;6.408;2022-07-09T02:46:20;0.60;;;0.60;;
50002;SDS011;35889;51.442;6.408;2022-07-09T02:48:45;0.60;;;0.60;;
50002;SDS011;35889;51.442;6.408;2022-07-09T02:51:11;0.60;;;0.60;;
50002;SDS011;35889;51.442;6.408;2022-07-09T02:53:36;0.60;;;0.60;;
50002;SDS011;35889;51.442;6.408;2022-07-09T02:56:02;0.70;;;0.70;;
50002;SDS011;35889;51.442;6.408;2022-07-09T02:58:28;0.60;;;0.60;;
50002;SDS011;35889;51.442;6.408;2022-07-09T03:00:53;0.65;;;0.65;;
50002;SDS011;35889;51.442;6.408;2022-07-09T03:03:18;0.60;;;0.60;;
50002;SDS011;35889;51.442;6.408;2022-07-09T03:05:44;0.60;;;0.60;;
50002;SDS011;35889;51.442;6.408;2022-07-09T03:08:09;0.60;;;0.60;;
50002;SDS011;35889;51.442;6.408;2022-07-09T03:10:35;0.60;;;0.60;;
50002;SDS011;35889;51.442;6.408;2022-07-09T03:13:00;0.60;;;0.60;;
50002;SDS011;35889;51.442;6.408;2022-07-09T03:15:26;0.60;;;0.60;;
50002;SDS011;35889;51.442;6.408;2022-07-09T03:17:52;0.60;;;0.60;;
50002;SDS011;35889;51.442;6.408;2022-07-09T03:20:17;0.60;;;0.60;;
50002;SDS011;35889;51.442;6.408;2022-07-09T03:22:43;0.60;;;0.60;;
50002;SDS011;35889;51.442;6.408;2022-07-09T03:25:08;0.60;;;0.60;;
50002;SDS011;35889;51.442;6.408;2022-07-09T03:27:34;0.60;;;0.60;;
50002;SDS011;35889;51.442;6.408;2022-07-09T03:30:00;0.60;;;0.60;;
50002;SDS011;35889;51.442;6.408;2022-07-09T03:32:26;0.70;;;0.70;;
50002;SDS011;35889;51.442;6.408;2022-07-09T03:34:52;0.60;;;0.60;;
50002;SDS011;35889;51.442;6.408;2022-07-09T03:37:18;0.60;;;0.60;;
50002;SDS011;35889;51.442;6.408;2022-07-09T03:39:43;0.60;;;0.60;;
50002;SDS011;35889;51.442;6.408;2022-07-09T03:42:10;0.60;;;0.60;;
50002;SDS011;35889;51.442;6.408;2022-07-09T03:44:36;0.60;;;0.60;;
50002;SDS011;35889;51.442;6.408;2022-07-09T03:47:01;0.60;;;0.60;;
50002;SDS011;35889;51.442;6.408;2022-07-09T03:49:27;0.60;;;0.60;;
50002;SDS011;35889;51.442;6.408;2022-07-09T03:51:52;0.60;;;0.60;;
50002;SDS011;35889;51.442;6.408;2022-07-09T03:54:18;0.70;;;0.70;;
50002;SDS011;35889;51.442;6.408;2022-07-09T03:56:44;0.70;;;0.70;;
50002;SDS011;35889;51.442;6.408;2022-07-09T03:59:09;0.60;;;0.60;;
50002;SDS011;35889;51.442;6.408;2022-07-09T04:01:35;0.60;;;0.60;;
50002;SDS011;35889;51.442;6.408;2022-07-09T04:04:00;0.60;;;0.60;;
50002;SDS011;35889;51.442;6.408;2022-07-09T04:06:26;0.60;;;0.60;;
50002;SDS011;35889;51.442;6.408;2022-07-09T04:08:51;0.60;;;0.60;;
50002;SDS011;35889;51.442;6.408;2022-07-09T04:11:17;0.60;;;0.60;;
50002;SDS011;35889;51.442;6.408;2022-07-09T04:13:42;0.60;;;0.60;;
50002;SDS011;35889;51.442;6.408;2022-07-09T04:16:08;0.60;;;0.60;;
50002;SDS011;35889;51.442;6.408;2022-07-09T04:18:33;0.60;;;0.60;;
50002;SDS011;35889;51.442;6.408;2022-07-09T04:20:59;0.60;;;0.60;;
50002;SDS011;35889;51.442;6.408;2022-07-09T04:23:25;0.60;;;0.60;;
50002;SDS011;35889;51.442;6.408;2022-07-09T04:25:51;0.70;;;0.70;;
50002;SDS011;35889;51.442;6.408;2022-07-09T04:28:17;0.60;;;0.60;;
50002;SDS011;35889;51.442;6.408;2022-07-09T04:30:44;0.60;;;0.60;;
50002;SDS011;35889;51.442;6.408;2022-07-09T04:33:09;0.60;;;0.60;;
50002;SDS011;35889;51.442;6.408;2022-07-09T04:35:35;0.70;;;0.70;;
50002;SDS011;35889;51.442;6.408;2022-07-09T04:38:01;0.60;;;0.60;;
50002;SDS011;35889;51.442;6.408;2022-07-09T04:40:27;0.60;;;0.60;;
50002;SDS011;35889;51.442;6.408;2022-07-09T04:42:52;0.70;;;0.70;;
50002;SDS011;35889;51.442;6.408;2022-07-09T04:45:18;0.60;;;0.60;;
50002;SDS011;35889;51.442;6.408;2022-07-09T04:47:43;0.60;;;0.60;;
50002;SDS011;35889;51.442;6.408;2022-07-09T04:50:09;0.65;;;0.65;;
50002;SDS011;35889;51.442;6.408;2022-07-09T04:52:36;0.60;;;0.60;;
50002;SDS011;35889;51.442;6.408;2022-07-09T04:55:02;0.60;;;0.60;;
50002;SDS011;35889;51.442;6.408;2022-07-09T04:57:27;0.60;;;0.60;;
50002;SDS011;35889;51.442;6.408;2022-07-09T04:59:56;0.60;;;0.60;;
50002;SDS011;35889;51.442;6.408;2022-07-09T05:02:23;0.70;;;0.70;;
50002;SDS011;35889;51.442;6.408;2022-07-09T05:04:48;0.60;;;0.60;;
50002;SDS011;35889;51.442;6.408;2022-07-09T05:07:13;0.60;;;0.60;;
50002;SDS011;35889;51.442;6.408;2022-07-09T05:09:39;0.60;;;0.60;;
50002;SDS011;35889;51.442;6.408;2022-07-09T05:12:04;0.60;;;0.60;;
50002;SDS011;35889;51.442;6.408;2022-07-09T05:14:30;0.60;;;0.60;;
50002;SDS011;35889;51.442;6.408;2022-07-09T05:16:56;0.60;;;0.60;;
50002;SDS011;35889;51.442;6.408;2022-07-09T05:19:21;0.70;;;0.70;;
50002;SDS011;35889;51.442;6.408;2022-07-09T05:21:46;0.60;;;0.60;;
50002;SDS011;35889;51.442;6.408;2022-07-09T05:24:12;0.60;;;0.60;;
50002;SDS011;35889;51.442;6.408;2022-07-09T05:26:38;0.60;;;0.60;;
50002;SDS011;35889;51.442;6.408;2022-07-09T05:29:03;0.60;;;0.60;;
50002;SDS011;35889;51.442;6.408;2022-07-09T05:31:28;0.70;;;0.70;;
50002;SDS011;35889;51.442;6.408;2022-07-09T05:33:54;0.70;;;0.70;;
50002;SDS011;35889;51.442;6.408;2022-07-09T05:36:19;0.70;;;0.70;;
50002;SDS011;35889;51.442;6.408;2022-07-09T05:38:45;0.70;;;0.70;;
50002;SDS011;35889;51.442;6.408;2022-07-09T05:41:12;0.60;;;0.60;;
50002;SDS011;35889;51.442;6.408;2022-07-09T05:43:39;0.60;;;0.60;;
50002;SDS011;35889;51.442;6.408;2022-07-09T05:46:04;0.70;;;0.70;;
50002;SDS011;35889;51.442;6.408;2022-07-09T05:48:30;0.70;;;0.70;;
50002;SDS011;35889;51.442;6.408;2022-07-09T05:50:55;0.60;;;0.60;;
50002;SDS011;35889;51.442;6.408;2022-07-09T05:53:21;0.70;;;0.70;;
50002;SDS011;35889;51.442;6.408;2022-07-09T05:55:46;0.60;;;0.60;;
50002;SDS011;35889;51.442;6.408;2022-07-09T05:58:12;0.60;;;0.60;;
50002;SDS011;35889;51.442;6.408;2022-07-09T06:00:38;0.60;;;0.60;;
50002;SDS011;35889;51.442;6.408;2022-07-09T06:03:03;0.60;;;0.60;;
50002;SDS011;35889;51.442;6.408;2022-07-09T06:05:29;0.60;;;0.60;;
50002;SDS011;35889;51.442;6.408;2022-07-09T06:07:55;0.70;;;0.70;;
50002;SDS011;35889;51.442;6.408;2022-07-09T06:10:20;0.70;;;0.70;;
50002;SDS011;35889;51.442;6.408;2022-07-09T06:12:46;0.60;;;0.60;;
50002;SDS011;35889;51.442;6.408;2022-07-09T06:15:11;0.60;;;0.60;;
50002;SDS011;35889;51.442;6.408;2022-07-09T06:17:37;0.60;;;0.60;;
50002;SDS011;35889;51.442;6.408;2022-07-09T06:20:03;0.70;;;0.70;;
50002;SDS011;35889;51.442;6.408;2022-07-09T06:22:29;0.70;;;0.70;;
50002;SDS011;35889;51.442;6.408;2022-07-09T06:24:55;0.63;;;0.63;;
50002;SDS011;35889;51.442;6.408;2022-07-09T06:27:21;0.70;;;0.70;;
50002;SDS011;35889;51.442;6.408;2022-07-09T06:29:46;0.60;;;0.60;;
50002;SDS011;35889;51.442;6.408;2022-07-09T06:32:12;0.70;;;0.70;;
50002;SDS011;35889;51.442;6.408;2022-07-09T06:34:37;0.70;;;0.70;;
50002;SDS011;35889;51.442;6.408;2022-07-09T06:37:03;0.73;;;0.73;;
50002;SDS011;35889;51.442;6.408;2022-07-09T06:39:28;0.70;;;0.70;;
50002;SDS011;35889;51.442;6.408;2022-07-09T06:42:14;0.70;;;0.70;;
50002;SDS011;35889;51.442;6.408;2022-07-09T06:44:44;0.70;;;0.70;;
50002;SDS011;35889;51.442;6.408;2022-07-09T06:47:10;0.70;;;0.70;;
50002;SDS011;35889;51.442;6.408;2022-07-09T06:49:36;0.70;;;0.70;;
50002;SDS011;35889;51.442;6.408;2022-07-09T06:52:02;0.60;;;0.60;;
50002;SDS011;35889;51.442;6.408;2022-07-09T06:54:28;0.70;;;0.70;;
50002;SDS011;35889;51.442;6.408;2022-07-09T06:56:54;0.60;;;0.60;;
50002;SDS011;35889;51.442;6.408;2022-07-09T06:59:21;0.60;;;0.60;;
50002;SDS011;35889;51.442;6.408;2022-07-09T07:01:47;0.70;;;0.70;;
50002;SDS011;35889;51.442;6.408;2022-07-09T07:04:13;0.60;;;0.60;;
50002;SDS011;35889;51.442;6.408;2022-07-09T07:06:39;0.60;;;0.60;;
50002;SDS011;35889;51.442;6.408;2022-07-09T07:09:08;0.70;;;0.70;;
50002;SDS011;35889;51.442;6.408;2022-07-09T07:11:33;0.70;;;0.70;;
50002;SDS011;35889;51.442;6.408;2022-07-09T07:13:59;0.70;;;0.70;;
50002;SDS011;35889;51.442;6.408;2022-07-09T07:16:24;0.70;;;0.70;;
50002;SDS011;35889;51.442;6.408;2022-07-09T07:18:50;0.80;;;0.80;;
50002;SDS011;35889;51.442;6.408;2022-07-09T07:21:15;0.65;;;0.65;;
50002;SDS011;35889;51.442;6.408;2022-07-09T07:23:41;0.70;;;0.70;;
50002;SDS011;35889;51.442;6.408;2022-07-09T07:26:06;0.70;;;0.70;;
50002;SDS011;35889;51.442;6.408;2022-07-09T07:28:33;0.60;;;0.60;;
50002;SDS011;35889;51.442;6.408;2022-07-09T07:30:58;0.70;;;0.70;;
50002;SDS011;35889;51.442;6.408;2022-07-09T07:33:24;0.70;;;0.70;;
50002;SDS011;35889;51.442;6.408;2022-07-09T07:35:49;0.70;;;0.70;;
50002;SDS011;35889;51.442;6.408;2022-07-09T07:38:15;0.70;;;0.70;;
50002;SDS011;35889;51.442;6.408;2022-07-09T07:40:40;0.65;;;0.65;;
50002;SDS011;35889;51.442;6.408;2022-07-09T07:43:09;0.70;;;0.70;;
50002;SDS011;35889;51.442;6.408;2022-07-09T07:45:35;0.70;;;0.70;;
50002;SDS011;35889;51.442;6.408;2022-07-09T07:48:01;0.70;;;0.70;;
50002;SDS011;35889;51.442;6.408;2022-07-09T07:50:26;0.70;;;0.70;;
50002;SDS011;35889;51.442;6.408;2022-07-09T07:52:52;0.70;;;0.70;;
50002;SDS011;35889;51.442;6.408;2022-07-09T07:55:17;0.70;;;0.70;;
50002;SDS011;35889;51.442;6.408;2022-07-09T07:57:43;0.70;;;0.70;;
50002;SDS011;35889;51.442;6.408;2022-07-09T08:00:08;0.70;;;0.70;;
50002;SDS011;35889;51.442;6.408;2022-07-09T08:02:37;0.67;;;0.67;;
50002;SDS011;35889;51.442;6.408;2022-07-09T08:05:03;0.70;;;0.70;;
50002;SDS011;35889;51.442;6.408;2022-07-09T08:07:29;0.70;;;0.70;;
50002;SDS011;35889;51.442;6.408;2022-07-09T08:09:55;0.70;;;0.70;;
50002;SDS011;35889;51.442;6.408;2022-07-09T08:12:20;0.70;;;0.70;;
50002;SDS011;35889;51.442;6.408;2022-07-09T08:14:46;0.70;;;0.70;;
50002;SDS011;35889;51.442;6.408;2022-07-09T08:17:11;0.70;;;0.70;;
50002;SDS011;35889;51.442;6.408;2022-07-09T08:19:37;0.70;;;0.70;;
50002;SDS011;35889;51.442;6.408;2022-07-09T08:22:02;0.80;;;0.80;;
50002;SDS011;35889;51.442;6.408;2022-07-09T08:24:28;0.70;;;0.70;;
50002;SDS011;35889;51.442;6.408;2022-07-09T08:26:53;0.70;;;0.70;;
50002;SDS011;35889;51.442;6.408;2022-07-09T08:29:19;0.70;;;0.70;;
50002;SDS011;35889;51.442;6.408;2022-07-09T08:31:44;0.70;;;0.70;;
50002;SDS011;35889;51.442;6.408;2022-07-09T08:34:10;0.70;;;0.70;;
50002;SDS011;35889;51.442;6.408;2022-07-09T08:36:35;0.70;;;0.70;;
50002;SDS011;35889;51.442;6.408;2022-07-09T08:39:00;0.80;;;0.80;;
50002;SDS011;35889;51.442;6.408;2022-07-09T08:41:26;0.80;;;0.80;;
50002;SDS011;35889;51.442;6.408;2022-07-09T08:43:51;0.70;;;0.70;;
50002;SDS011;35889;51.442;6.408;2022-07-09T08:46:17;0.75;;;0.75;;
50002;SDS011;35889;51.442;6.408;2022-07-09T08:48:43;0.70;;;0.70;;
50002;SDS011;35889;51.442;6.408;2022-07-09T08:51:10;0.80;;;0.80;;
50002;SDS011;35889;51.442;6.408;2022-07-09T08:53:39;0.70;;;0.70;;
50002;SDS011;35889;51.442;6.408;2022-07-09T08:56:07;0.70;;;0.70;;
50002;SDS011;35889;51.442;6.408;2022-07-09T08:58:32;0.80;;;0.80;;
50002;SDS011;35889;51.442;6.408;2022-07-09T09:00:58;0.70;;;0.70;;
50002;SDS011;35889;51.442;6.408;2022-07-09T09:03:24;0.80;;;0.80;;
50002;SDS011;35889;51.442;6.408;2022-07-09T09:05:59;0.80;;;0.80;;
50002;SDS011;35889;51.442;6.408;2022-07-09T09:08:32;0.80;;;0.80;;
50002;SDS011;35889;51.442;6.408;2022-07-09T09:11:07;0.80;;;0.80;;
50002;SDS011;35889;51.442;6.408;2022-07-09T09:13:44;0.80;;;0.80;;
50002;SDS011;35889;51.442;6.408;2022-07-09T09:16:11;0.80;;;0.80;;
50002;SDS011;35889;51.442;6.408;2022-07-09T09:18:41;0.80;;;0.80;;
50002;SDS011;35889;51.442;6.408;2022-07-09T09:21:07;0.80;;;0.80;;
50002;SDS011;35889;51.442;6.408;2022-07-09T09:23:40;0.80;;;0.80;;
50002;SDS011;35889;51.442;6.408;2022-07-09T09:26:09;0.80;;;0.80;;
50002;SDS011;35889;51.442;6.408;2022-07-09T09:28:56;0.80;;;0.80;;
50002;SDS011;35889;51.442;6.408;2022-07-09T09:31:31;0.80;;;0.80;;
50002;SDS011;35889;51.442;6.408;2022-07-09T09:33:58;0.80;;;0.80;;
50002;SDS011;35889;51.442;6.408;2022-07-09T09:36:42;0.80;;;0.80;;
50002;SDS011;35889;51.442;6.408;2022-07-09T09:39:22;0.80;;;0.80;;
50002;SDS011;35889;51.442;6.408;2022-07-09T09:41:49;0.70;;;0.70;;
50002;SDS011;35889;51.442;6.408;2022-07-09T09:44:19;0.80;;;0.80;;
50002;SDS011;35889;51.442;6.408;2022-07-09T09:46:46;0.80;;;0.80;;
50002;SDS011;35889;51.442;6.408;2022-07-09T09:49:13;0.80;;;0.80;;
50002;SDS011;35889;51.442;6.408;2022-07-09T09:54:28;0.80;;;0.80;;
50002;SDS011;35889;51.442;6.408;2022-07-09T09:56:53;0.80;;;0.80;;
50002;SDS011;35889;51.442;6.408;2022-07-09T09:59:19;0.75;;;0.75;;
50002;SDS011;35889;51.442;6.408;2022-07-09T10:01:45;0.80;;;0.80;;
50002;SDS011;35889;51.442;6.408;2022-07-09T10:04:11;0.80;;;0.80;;
50002;SDS011;35889;51.442;6.408;2022-07-09T10:06:40;0.80;;;0.80;;
50002;SDS011;35889;51.442;6.408;2022-07-09T10:09:06;0.80;;;0.80;;
50002;SDS011;35889;51.442;6.408;2022-07-09T10:11:38;0.80;;;0.80;;
50002;SDS011;35889;51.442;6.408;2022-07-09T10:14:04;0.70;;;0.70;;
50002;SDS011;35889;51.442;6.408;2022-07-09T10:16:33;0.80;;;0.80;;
50002;SDS011;35889;51.442;6.408;2022-07-09T10:18:59;0.80;;;0.80;;
50002;SDS011;35889;51.442;6.408;2022-07-09T10:21:34;0.75;;;0.75;;
50002;SDS011;35889;51.442;6.408;2022-07-09T10:24:04;0.90;;;0.90;;
50002;SDS011;35889;51.442;6.408;2022-07-09T10:26:36;0.80;;;0.80;;
50002;SDS011;35889;51.442;6.408;2022-07-09T10:31:48;0.70;;;0.70;;
50002;SDS011;35889;51.442;6.408;2022-07-09T10:34:17;0.80;;;0.80;;
50002;SDS011;35889;51.442;6.408;2022-07-09T10:37:00;0.80;;;0.80;;
50002;SDS011;35889;51.442;6.408;2022-07-09T10:39:27;0.80;;;0.80;;
50002;SDS011;35889;51.442;6.408;2022-07-09T10:44:33;0.70;;;0.70;;
50002;SDS011;35889;51.442;6.408;2022-07-09T10:47:02;0.70;;;0.70;;
50002;SDS011;35889;51.442;6.408;2022-07-09T10:49:29;0.75;;;0.75;;
50002;SDS011;35889;51.442;6.408;2022-07-09T10:51:55;0.70;;;0.70;;
50002;SDS011;35889;51.442;6.408;2022-07-09T10:54:22;0.70;;;0.70;;
50002;SDS011;35889;51.442;6.408;2022-07-09T10:56:48;0.80;;;0.80;;
50002;SDS011;35889;51.442;6.408;2022-07-09T10:59:16;0.70;;;0.70;;
50002;SDS011;35889;51.442;6.408;2022-07-09T11:01:45;0.70;;;0.70;;
50002;SDS011;35889;51.442;6.408;2022-07-09T11:04:10;0.70;;;0.70;;
50002;SDS011;35889;51.442;6.408;2022-07-09T11:06:48;0.70;;;0.70;;
50002;SDS011;35889;51.442;6.408;2022-07-09T11:09:14;0.70;;;0.70;;
50002;SDS011;35889;51.442;6.408;2022-07-09T11:11:43;0.73;;;0.73;;
50002;SDS011;35889;51.442;6.408;2022-07-09T11:14:12;0.80;;;0.80;;
50002;SDS011;35889;51.442;6.408;2022-07-09T11:16:37;0.70;;;0.70;;
50002;SDS011;35889;51.442;6.408;2022-07-09T11:19:15;0.80;;;0.80;;
50002;SDS011;35889;51.442;6.408;2022-07-09T11:21:41;0.70;;;0.70;;
50002;SDS011;35889;51.442;6.408;2022-07-09T11:26:39;0.80;;;0.80;;
50002;SDS011;35889;51.442;6.408;2022-07-09T11:29:06;0.80;;;0.80;;
50002;SDS011;35889;51.442;6.408;2022-07-09T11:31:35;0.80;;;0.80;;
50002;SDS011;35889;51.442;6.408;2022-07-09T11:34:01;0.80;;;0.80;;
50002;SDS011;35889;51.442;6.408;2022-07-09T11:36:37;0.73;;;0.73;;
50002;SDS011;35889;51.442;6.408;2022-07-09T11:39:21;0.80;;;0.80;;
50002;SDS011;35889;51.442;6.408;2022-07-09T11:41:51;0.80;;;0.80;;
50002;SDS011;35889;51.442;6.408;2022-07-09T11:44:20;0.80;;;0.80;;
50002;SDS011;35889;51.442;6.408;2022-07-09T11:46:58;0.73;;;0.73;;
50002;SDS011;35889;51.442;6.408;2022-07-09T11:49:34;0.80;;;0.80;;
50002;SDS011;35889;51.442;6.408;2022-07-09T11:52:02;0.70;;;0.70;;
50002;SDS011;35889;51.442;6.408;2022-07-09T11:54:29;0.80;;;0.80;;
50002;SDS011;35889;51.442;6.408;2022-07-09T11:56:54;0.80;;;0.80;;
50002;SDS011;35889;51.442;6.408;2022-07-09T11:59:29;0.80;;;0.80;;
50002;SDS011;35889;51.442;6.408;2022-07-09T12:01:59;0.80;;;0.80;;
50002;SDS011;35889;51.442;6.408;2022-07-09T12:04:27;0.80;;;0.80;;
50002;SDS011;35889;51.442;6.408;2022-07-09T12:06:54;0.80;;;0.80;;
50002;SDS011;35889;51.442;6.408;2022-07-09T12:09:29;0.70;;;0.70;;
50002;SDS011;35889;51.442;6.408;2022-07-09T12:11:55;0.80;;;0.80;;
50002;SDS011;35889;51.442;6.408;2022-07-09T12:14:21;0.80;;;0.80;;
50002;SDS011;35889;51.442;6.408;2022-07-09T12:16:47;0.80;;;0.80;;
50002;SDS011;35889;51.442;6.408;2022-07-09T12:19:12;0.70;;;0.70;;
50002;SDS011;35889;51.442;6.408;2022-07-09T12:21:38;0.75;;;0.75;;
50002;SDS011;35889;51.442;6.408;2022-07-09T12:24:03;0.70;;;0.70;;
50002;SDS011;35889;51.442;6.408;2022-07-09T12:26:29;0.85;;;0.85;;
50002;SDS011;35889;51.442;6.408;2022-07-09T12:28:56;0.80;;;0.80;;
50002;SDS011;35889;51.442;6.408;2022-07-09T12:31:21;0.80;;;0.80;;
50002;SDS011;35889;51.442;6.408;2022-07-09T12:33:47;0.80;;;0.80;;
50002;SDS011;35889;51.442;6.408;2022-07-09T12:36:12;0.70;;;0.70;;
50002;SDS011;35889;51.442;6.408;2022-07-09T12:38:38;0.70;;;0.70;;
50002;SDS011;35889;51.442;6.408;2022-07-09T12:41:03;0.70;;;0.70;;
50002;SDS011;35889;51.442;6.408;2022-07-09T12:43:28;0.80;;;0.80;;
50002;SDS011;35889;51.442;6.408;2022-07-09T12:45:54;0.90;;;0.90;;
50002;SDS011;35889;51.442;6.408;2022-07-09T12:48:19;0.80;;;0.80;;
50002;SDS011;35889;51.442;6.408;2022-07-09T12:50:45;0.88;;;0.88;;
50002;SDS011;35889;51.442;6.408;2022-07-09T12:53:12;0.80;;;0.80;;
50002;SDS011;35889;51.442;6.408;2022-07-09T12:55:37;0.80;;;0.80;;
50002;SDS011;35889;51.442;6.408;2022-07-09T12:58:03;0.70;;;0.70;;
50002;SDS011;35889;51.442;6.408;2022-07-09T13:00:28;0.70;;;0.70;;
50002;SDS011;35889;51.442;6.408;2022-07-09T13:02:54;0.80;;;0.80;;
50002;SDS011;35889;51.442;6.408;2022-07-09T13:05:19;0.80;;;0.80;;
50002;SDS011;35889;51.442;6.408;2022-07-09T13:07:45;0.70;;;0.70;;
50002;SDS011;35889;51.442;6.408;2022-07-09T13:10:10;0.80;;;0.80;;
50002;SDS011;35889;51.442;6.408;2022-07-09T13:12:36;0.80;;;0.80;;
50002;SDS011;35889;51.442;6.408;2022-07-09T13:15:01;0.80;;;0.80;;
50002;SDS011;35889;51.442;6.408;2022-07-09T13:17:27;0.80;;;0.80;;
50002;SDS011;35889;51.442;6.408;2022-07-09T13:19:53;0.73;;;0.73;;
50002;SDS011;35889;51.442;6.408;2022-07-09T13:22:18;0.70;;;0.70;;
50002;SDS011;35889;51.442;6.408;2022-07-09T13:24:43;0.70;;;0.70;;
50002;SDS011;35889;51.442;6.408;2022-07-09T13:27:09;0.70;;;0.70;;
50002;SDS011;35889;51.442;6.408;2022-07-09T13:29:36;0.80;;;0.80;;
50002;SDS011;35889;51.442;6.408;2022-07-09T13:32:01;0.70;;;0.70;;
50002;SDS011;35889;51.442;6.408;2022-07-09T13:34:27;0.80;;;0.80;;
50002;SDS011;35889;51.442;6.408;2022-07-09T13:36:53;0.70;;;0.70;;
50002;SDS011;35889;51.442;6.408;2022-07-09T13:39:18;0.80;;;0.80;;
50002;SDS011;35889;51.442;6.408;2022-07-09T13:41:44;0.80;;;0.80;;
50002;SDS011;35889;51.442;6.408;2022-07-09T13:44:09;0.70;;;0.70;;
50002;SDS011;35889;51.442;6.408;2022-07-09T13:46:35;0.70;;;0.70;;
50002;SDS011;35889;51.442;6.408;2022-07-09T13:49:00;0.70;;;0.70;;
50002;SDS011;35889;51.442;6.408;2022-07-09T13:51:26;0.80;;;0.80;;
50002;SDS011;35889;51.442;6.408;2022-07-09T13:53:51;0.80;;;0.80;;
50002;SDS011;35889;51.442;6.408;2022-07-09T13:56:17;0.90;;;0.90;;
50002;SDS011;35889;51.442;6.408;2022-07-09T13:58:42;1.02;;;1.02;;
50002;SDS011;35889;51.442;6.408;2022-07-09T14:01:07;0.80;;;0.80;;
50002;SDS011;35889;51.442;6.408;2022-07-09T14:03:33;0.80;;;0.80;;
50002;SDS011;35889;51.442;6.408;2022-07-09T14:05:58;0.80;;;0.80;;
50002;SDS011;35889;51.442;6.408;2022-07-09T14:08:24;1.10;;;1.10;;
50002;SDS011;35889;51.442;6.408;2022-07-09T14:10:52;1.17;;;1.17;;
50002;SDS011;35889;51.442;6.408;2022-07-09T14:13:23;1.10;;;1.10;;
50002;SDS011;35889;51.442;6.408;2022-07-09T14:15:54;1.10;;;1.10;;
50002;SDS011;35889;51.442;6.408;2022-07-09T14:20:46;1.02;;;1.02;;
50002;SDS011;35889;51.442;6.408;2022-07-09T14:23:12;0.75;;;0.75;;
50002;SDS011;35889;51.442;6.408;2022-07-09T14:25:37;0.80;;;0.80;;
50002;SDS011;35889;51.442;6.408;2022-07-09T14:28:03;1.10;;;1.10;;
50002;SDS011;35889;51.442;6.408;2022-07-09T14:30:28;1.10;;;1.10;;
50002;SDS011;35889;51.442;6.408;2022-07-09T14:32:54;1.10;;;1.10;;
50002;SDS011;35889;51.442;6.408;2022-07-09T14:35:20;1.10;;;1.10;;
50002;SDS011;35889;51.442;6.408;2022-07-09T14:37:45;1.08;;;1.08;;
50002;SDS011;35889;51.442;6.408;2022-07-09T14:40:11;1.10;;;1.10;;
50002;SDS011;35889;51.442;6.408;2022-07-09T14:42:37;1.10;;;1.10;;
50002;SDS011;35889;51.442;6.408;2022-07-09T14:45:02;1.00;;;1.00;;
50002;SDS011;35889;51.442;6.408;2022-07-09T14:47:29;1.00;;;1.00;;
50002;SDS011;35889;51.442;6.408;2022-07-09T14:49:54;1.10;;;1.10;;
50002;SDS011;35889;51.442;6.408;2022-07-09T14:52:20;0.80;;;0.80;;
50002;SDS011;35889;51.442;6.408;2022-07-09T14:54:45;0.70;;;0.70;;
50002;SDS011;35889;51.442;6.408;2022-07-09T14:57:11;1.00;;;1.00;;